Detall de PIREP

Printer-friendly versionPDF version

[2013/03/09 15:52:00]
Flight IATA:CT1006
Pilot Number:012
Company ICAO:CAT
Aircraft Type:C750/F
PAX:4
Departing Airport: LFMP
Destination Airport: LEAL
Alternate Airport:LEPA
Online: VATSIM
Route:BEXU3S/15 BEXUR UN855 SISMO UZ237 OKITI UM603 GERVU
Flight Level:F310
No Slew and time accel
No pause
Crash detect
Detect pilot in Cockpit between each 30 and 45 minutes
15:52 Zero fuel Weight: 22979 Lbs, Fuel Weight: 3635 Lbs
15:52 VATSIM:LFMP 091530Z 13008KT 100V160 9999 FEW033TCU SCT043 BKN070 16/09 Q1003 NOSIG
15:52 VATSIM:LEAL 091530Z 17013KT 140V200 9999 SCT035 21/12 Q1007 NOSIG
15:52 VOICE CATALONIAN / ALMOGÀVERS ROUTE
16:06 Parking Brakes off
16:25 Take-off
16:25 Take off Weight: 26383 Lbs
16:25 Wind: 120º @ 006 Knots Heading: 146º
16:25 POS N42º 44´ 41´´ E002º 52´ 10´´
16:25 Gear Up: 153 Knots
16:25 Flaps:3 at 153 Knots
16:26 Flaps:2 at 176 Knots
16:26 Flaps:0at 189 Knots
16:35 TOC
16:35 Fuel Weight: 3009 Lb
16:40 Wind:250º@080 Knots Heading: 190º Ground Speed: 444 Knots Altitude 30685 ft
16:55 Wind:254º@097 Knots Heading: 216º Ground Speed: 407 Knots Altitude 30797 ft
17:07 TOD
17:07 Fuel Weight: 2194 Lb
17:10 Wind:256º@092 Knots Heading: 249º Ground Speed: 402 Knots Altitude 28169 ft
17:25 Wind:250º@029 Knots Heading: 253º Ground Speed: 241 Knots Altitude 8854 ft
17:33 Flaps:2 at 214 Knots
17:34 Gear Down: 216 Knots
17:34 Flaps:3 at 205 Knots
17:34 Flaps:4 at 189 Knots
17:34 Flaps:5 at 173 Knots
17:35 TouchDown:Rate -149 ft/min Speed: 111 Knots
17:35 VATSIM:LEAL 091700Z 18006KT 140V210 9999 -RA FEW028 SCT035 18/14 Q1007 NOSIG
17:35 Land
17:35 Wind:190º@009 Knots
17:35 Heading: 100º
17:35 Flight Duration: 01:10
17:35 Landing Weight: 24802 Lbs
17:35 POS N38º 16´ 55´´ W000º 33´ 26´´
17:39 Parking brakes on
17:39 Block to Block Duration: 01:33
17:39 Final Fuel: 1796 Lbls
17:39 Spent Fuel: 1838 Lbls
17:39 Flight Length: 411 NM
17:39 TOD Land Length: 135 NM
at 189 Knots
16:35 TOC
16:35 Fuel Weight: 3009 Lb
16:40 Wind:250º@080 Knots Heading: 190º Ground Speed: 444 Knots Altitude 30685 ft
16:55 Wind:254º@097 Knots Heading: 216º Ground Speed: 407 Knots Altitude 30797 ft
17:07 TOD
17:07 Fuel Weight: 2194 Lb
17:10 Wind:256º@092 Knots Heading: 249º Ground Speed: 402 Knots Altitude 28169 ft
17:25 Wind:250º@029 Knots Heading: 253º Ground Speed: 241 Knots Altitude 8854 ft
17:33 Flaps:2 at 214 Knots
17:34 Gear Down: 216 Knots
17:34 Flaps:3 at 205 Knots
17:34 Flaps:4 at 189 Knots
17:34 Flaps:5 at 173 Knots
17:35 TouchDown:Rate -149 ft/min Speed: 111 Knots
17:35 VATSIM:LEAL 091700Z 18006KT 140V210 9999 -RA FEW028 SCT035 18/14 Q1007 NOSIG
17:35 Land
17:35 Wind:190º@009 Knots
17:35 Heading: 100º
17:35 Flight Duration: 01:10
17:35 Landing Weight: 24802 Lbs
17:35 POS N38º 16´ 55´´ W000º 33´ 26´´
17:39 Parking brakes on
17

Exportar CSV

Powered by Drupal - Modified by Danger4k